sensor_id;sensor_type;location;lat;lon;timestamp;pressure;altitude;pressure_sealevel;temperature;humidity
65758;BME280;52495;52.208;5.158;2022-08-16T00:01:50;100508.50;;;21.27;73.92
65758;BME280;52495;52.208;5.158;2022-08-16T00:04:17;100507.81;;;21.25;73.94
65758;BME280;52495;52.208;5.158;2022-08-16T00:06:44;100511.25;;;21.25;74.04
65758;BME280;52495;52.208;5.158;2022-08-16T00:09:13;100509.69;;;21.22;74.28
65758;BME280;52495;52.208;5.158;2022-08-16T00:11:41;100508.00;;;21.21;74.03
65758;BME280;52495;52.208;5.158;2022-08-16T00:14:11;100513.56;;;21.17;74.29
65758;BME280;52495;52.208;5.158;2022-08-16T00:16:39;100515.44;;;21.15;74.28
65758;BME280;52495;52.208;5.158;2022-08-16T00:19:06;100513.97;;;21.11;74.48
65758;BME280;52495;52.208;5.158;2022-08-16T00:21:33;100513.34;;;21.07;74.63
65758;BME280;52495;52.208;5.158;2022-08-16T00:24:00;100521.31;;;21.05;74.64
65758;BME280;52495;52.208;5.158;2022-08-16T00:26:29;100521.31;;;21.05;74.63
65758;BME280;52495;52.208;5.158;2022-08-16T00:28:55;100527.50;;;21.04;74.79
65758;BME280;52495;52.208;5.158;2022-08-16T00:31:22;100527.69;;;21.01;74.71
65758;BME280;52495;52.208;5.158;2022-08-16T00:33:49;100532.94;;;21.01;74.54
65758;BME280;52495;52.208;5.158;2022-08-16T00:36:16;100535.69;;;21.00;74.53
65758;BME280;52495;52.208;5.158;2022-08-16T00:38:42;100539.34;;;20.97;74.36
65758;BME280;52495;52.208;5.158;2022-08-16T00:41:09;100537.00;;;20.92;74.62
65758;BME280;52495;52.208;5.158;2022-08-16T00:43:38;100539.88;;;20.89;74.82
65758;BME280;52495;52.208;5.158;2022-08-16T00:46:09;100537.44;;;20.86;74.58
65758;BME280;52495;52.208;5.158;2022-08-16T00:48:37;100534.91;;;20.85;74.56
65758;BME280;52495;52.208;5.158;2022-08-16T00:51:06;100539.44;;;20.83;74.70
65758;BME280;52495;52.208;5.158;2022-08-16T00:53:33;100539.63;;;20.80;74.77
65758;BME280;52495;52.208;5.158;2022-08-16T00:56:04;100543.38;;;20.75;74.73
65758;BME280;52495;52.208;5.158;2022-08-16T00:58:36;100542.59;;;20.73;74.82
65758;BME280;52495;52.208;5.158;2022-08-16T01:01:06;100539.34;;;20.70;75.01
65758;BME280;52495;52.208;5.158;2022-08-16T01:03:35;100538.72;;;20.66;74.97
65758;BME280;52495;52.208;5.158;2022-08-16T01:06:03;100539.00;;;20.61;74.96
65758;BME280;52495;52.208;5.158;2022-08-16T01:08:32;100540.03;;;20.59;75.12
65758;BME280;52495;52.208;5.158;2022-08-16T01:11:01;100536.66;;;20.57;75.10
65758;BME280;52495;52.208;5.158;2022-08-16T01:13:30;100536.78;;;20.55;75.14
65758;BME280;52495;52.208;5.158;2022-08-16T01:16:00;100534.16;;;20.55;75.02
65758;BME280;52495;52.208;5.158;2022-08-16T01:18:31;100533.41;;;20.53;74.97
65758;BME280;52495;52.208;5.158;2022-08-16T01:21:12;100532.56;;;20.53;75.39
65758;BME280;52495;52.208;5.158;2022-08-16T01:23:53;100526.56;;;20.51;75.40
65758;BME280;52495;52.208;5.158;2022-08-16T01:26:23;100537.91;;;20.51;75.10
65758;BME280;52495;52.208;5.158;2022-08-16T01:28:55;100538.00;;;20.50;75.11
65758;BME280;52495;52.208;5.158;2022-08-16T01:31:24;100535.59;;;20.46;75.14
65758;BME280;52495;52.208;5.158;2022-08-16T01:33:52;100530.53;;;20.43;75.68
65758;BME280;52495;52.208;5.158;2022-08-16T01:36:19;100529.16;;;20.38;75.82
65758;BME280;52495;52.208;5.158;2022-08-16T01:38:49;100526.59;;;20.36;75.79
65758;BME280;52495;52.208;5.158;2022-08-16T01:41:17;100529.22;;;20.36;75.58
65758;BME280;52495;52.208;5.158;2022-08-16T01:43:47;100526.78;;;20.33;75.57
65758;BME280;52495;52.208;5.158;2022-08-16T01:46:19;100528.78;;;20.29;75.56
65758;BME280;52495;52.208;5.158;2022-08-16T01:48:48;100532.34;;;20.28;75.39
65758;BME280;52495;52.208;5.158;2022-08-16T01:51:16;100524.88;;;20.22;75.63
65758;BME280;52495;52.208;5.158;2022-08-16T01:53:44;100531.13;;;20.20;75.85
65758;BME280;52495;52.208;5.158;2022-08-16T01:56:30;100528.00;;;20.14;75.73
65758;BME280;52495;52.208;5.158;2022-08-16T01:58:59;100531.72;;;20.10;75.85
65758;BME280;52495;52.208;5.158;2022-08-16T02:01:27;100518.69;;;20.09;76.08
65758;BME280;52495;52.208;5.158;2022-08-16T02:03:55;100521.63;;;20.04;76.20
65758;BME280;52495;52.208;5.158;2022-08-16T02:06:22;100534.81;;;20.02;76.25
65758;BME280;52495;52.208;5.158;2022-08-16T02:08:51;100529.03;;;19.97;76.38
65758;BME280;52495;52.208;5.158;2022-08-16T02:11:21;100524.81;;;19.95;76.54
65758;BME280;52495;52.208;5.158;2022-08-16T02:13:50;100536.25;;;19.94;76.32
65758;BME280;52495;52.208;5.158;2022-08-16T02:16:17;100533.63;;;19.94;76.40
65758;BME280;52495;52.208;5.158;2022-08-16T02:18:46;100532.94;;;19.90;76.39
65758;BME280;52495;52.208;5.158;2022-08-16T02:21:14;100525.19;;;19.89;76.59
65758;BME280;52495;52.208;5.158;2022-08-16T02:23:43;100527.91;;;19.87;76.50
65758;BME280;52495;52.208;5.158;2022-08-16T02:26:10;100528.81;;;19.86;76.46
65758;BME280;52495;52.208;5.158;2022-08-16T02:28:37;100528.81;;;19.86;76.55
65758;BME280;52495;52.208;5.158;2022-08-16T02:31:07;100525.34;;;19.85;76.58
65758;BME280;52495;52.208;5.158;2022-08-16T02:33:37;100529.75;;;19.85;76.37
65758;BME280;52495;52.208;5.158;2022-08-16T02:36:05;100528.91;;;19.84;76.36
65758;BME280;52495;52.208;5.158;2022-08-16T02:38:32;100531.44;;;19.86;76.36
65758;BME280;52495;52.208;5.158;2022-08-16T02:41:01;100535.94;;;19.84;76.38
65758;BME280;52495;52.208;5.158;2022-08-16T02:43:32;100536.88;;;19.83;76.33
65758;BME280;52495;52.208;5.158;2022-08-16T02:46:02;100535.19;;;19.82;76.29
65758;BME280;52495;52.208;5.158;2022-08-16T02:48:30;100532.84;;;19.77;76.49
65758;BME280;52495;52.208;5.158;2022-08-16T02:51:02;100536.41;;;19.76;76.44
65758;BME280;52495;52.208;5.158;2022-08-16T02:53:29;100534.72;;;19.75;76.45
65758;BME280;52495;52.208;5.158;2022-08-16T02:55:57;100524.69;;;19.67;76.87
65758;BME280;52495;52.208;5.158;2022-08-16T02:58:24;100530.94;;;19.65;77.09
65758;BME280;52495;52.208;5.158;2022-08-16T03:00:52;100524.06;;;19.64;77.09
65758;BME280;52495;52.208;5.158;2022-08-16T03:03:19;100526.56;;;19.65;76.95
65758;BME280;52495;52.208;5.158;2022-08-16T03:05:47;100525.00;;;19.63;76.84
65758;BME280;52495;52.208;5.158;2022-08-16T03:08:16;100518.25;;;19.59;76.66
65758;BME280;52495;52.208;5.158;2022-08-16T03:10:43;100520.00;;;19.58;76.82
65758;BME280;52495;52.208;5.158;2022-08-16T03:13:10;100519.25;;;19.56;76.69
65758;BME280;52495;52.208;5.158;2022-08-16T03:15:37;100519.47;;;19.53;76.71
65758;BME280;52495;52.208;5.158;2022-08-16T03:18:04;100513.53;;;19.49;76.94
65758;BME280;52495;52.208;5.158;2022-08-16T03:20:32;100524.31;;;19.45;76.96
65758;BME280;52495;52.208;5.158;2022-08-16T03:23:05;100525.34;;;19.42;77.17
65758;BME280;52495;52.208;5.158;2022-08-16T03:25:33;100525.41;;;19.40;77.21
65758;BME280;52495;52.208;5.158;2022-08-16T03:28:01;100521.22;;;19.38;77.05
65758;BME280;52495;52.208;5.158;2022-08-16T03:30:30;100521.50;;;19.33;77.05
65758;BME280;52495;52.208;5.158;2022-08-16T03:33:00;100522.78;;;19.26;77.40
65758;BME280;52495;52.208;5.158;2022-08-16T03:35:37;100525.66;;;19.21;77.47
65758;BME280;52495;52.208;5.158;2022-08-16T03:38:27;100529.50;;;19.16;77.59
65758;BME280;52495;52.208;5.158;2022-08-16T03:40:56;100528.84;;;19.12;78.14
65758;BME280;52495;52.208;5.158;2022-08-16T03:43:25;100534.16;;;19.10;78.37
65758;BME280;52495;52.208;5.158;2022-08-16T03:45:53;100528.16;;;19.08;78.38
65758;BME280;52495;52.208;5.158;2022-08-16T03:48:27;100522.25;;;19.05;78.60
65758;BME280;52495;52.208;5.158;2022-08-16T03:50:54;100525.81;;;19.04;78.87
65758;BME280;52495;52.208;5.158;2022-08-16T03:53:21;100513.94;;;18.98;79.01
65758;BME280;52495;52.208;5.158;2022-08-16T03:55:49;100527.00;;;18.98;78.92
65758;BME280;52495;52.208;5.158;2022-08-16T03:58:16;100524.41;;;18.98;78.87
65758;BME280;52495;52.208;5.158;2022-08-16T04:00:43;100534.25;;;18.93;79.11
65758;BME280;52495;52.208;5.158;2022-08-16T04:03:14;100528.19;;;18.92;79.31
65758;BME280;52495;52.208;5.158;2022-08-16T04:05:45;100534.34;;;18.91;79.41
65758;BME280;52495;52.208;5.158;2022-08-16T04:08:15;100533.47;;;18.91;79.66
65758;BME280;52495;52.208;5.158;2022-08-16T04:10:44;100536.09;;;18.91;79.56
65758;BME280;52495;52.208;5.158;2022-08-16T04:13:12;100537.78;;;18.92;79.73
65758;BME280;52495;52.208;5.158;2022-08-16T04:15:39;100535.03;;;18.95;79.82
65758;BME280;52495;52.208;5.158;2022-08-16T04:18:19;100539.34;;;18.96;79.76
65758;BME280;52495;52.208;5.158;2022-08-16T04:20:47;100549.69;;;18.98;79.89
65758;BME280;52495;52.208;5.158;2022-08-16T04:23:16;100541.84;;;18.98;79.52
65758;BME280;52495;52.208;5.158;2022-08-16T04:25:44;100551.22;;;19.02;79.28
65758;BME280;52495;52.208;5.158;2022-08-16T04:28:14;100557.38;;;19.01;79.16
65758;BME280;52495;52.208;5.158;2022-08-16T04:30:41;100553.84;;;19.02;79.38
65758;BME280;52495;52.208;5.158;2022-08-16T04:33:08;100555.44;;;19.04;79.66
65758;BME280;52495;52.208;5.158;2022-08-16T04:35:38;100559.72;;;19.05;79.40
65758;BME280;52495;52.208;5.158;2022-08-16T04:38:06;100566.47;;;19.09;79.71
65758;BME280;52495;52.208;5.158;2022-08-16T04:40:39;100569.75;;;19.13;79.85
65758;BME280;52495;52.208;5.158;2022-08-16T04:43:06;100573.97;;;19.16;79.83
65758;BME280;52495;52.208;5.158;2022-08-16T04:45:35;100570.34;;;19.18;79.87
65758;BME280;52495;52.208;5.158;2022-08-16T04:48:10;100571.00;;;19.22;79.67
65758;BME280;52495;52.208;5.158;2022-08-16T04:50:46;100575.28;;;19.23;79.84
65758;BME280;52495;52.208;5.158;2022-08-16T04:53:16;100582.31;;;19.22;79.89
65758;BME280;52495;52.208;5.158;2022-08-16T04:55:44;100588.38;;;19.23;80.00
65758;BME280;52495;52.208;5.158;2022-08-16T04:58:11;100582.97;;;19.26;80.01
65758;BME280;52495;52.208;5.158;2022-08-16T05:00:39;100579.34;;;19.29;79.94
65758;BME280;52495;52.208;5.158;2022-08-16T05:03:11;100581.78;;;19.32;80.06
65758;BME280;52495;52.208;5.158;2022-08-16T05:05:43;100583.56;;;19.31;79.93
65758;BME280;52495;52.208;5.158;2022-08-16T05:08:11;100585.31;;;19.31;79.89
65758;BME280;52495;52.208;5.158;2022-08-16T05:10:42;100585.06;;;19.35;79.96
65758;BME280;52495;52.208;5.158;2022-08-16T05:13:09;100584.16;;;19.36;79.71
65758;BME280;52495;52.208;5.158;2022-08-16T05:15:36;100582.28;;;19.38;79.82
65758;BME280;52495;52.208;5.158;2022-08-16T05:18:05;100584.69;;;19.41;79.87
65758;BME280;52495;52.208;5.158;2022-08-16T05:20:39;100586.31;;;19.44;79.62
65758;BME280;52495;52.208;5.158;2022-08-16T05:23:06;100584.44;;;19.46;79.53
65758;BME280;52495;52.208;5.158;2022-08-16T05:25:35;100582.56;;;19.48;79.54
65758;BME280;52495;52.208;5.158;2022-08-16T05:28:02;100579.22;;;19.46;79.40
65758;BME280;52495;52.208;5.158;2022-08-16T05:30:29;100592.31;;;19.46;79.72
65758;BME280;52495;52.208;5.158;2022-08-16T05:32:56;100591.53;;;19.44;79.75
65758;BME280;52495;52.208;5.158;2022-08-16T05:35:24;100599.41;;;19.44;79.79
65758;BME280;52495;52.208;5.158;2022-08-16T05:38:17;100607.25;;;19.44;79.63
65758;BME280;52495;52.208;5.158;2022-08-16T05:40:44;100610.69;;;19.45;80.04
65758;BME280;52495;52.208;5.158;2022-08-16T05:43:11;100607.16;;;19.46;80.05
65758;BME280;52495;52.208;5.158;2022-08-16T05:45:39;100611.47;;;19.47;79.97
65758;BME280;52495;52.208;5.158;2022-08-16T05:48:06;100608.94;;;19.45;80.05
65758;BME280;52495;52.208;5.158;2022-08-16T05:50:47;100610.53;;;19.48;80.40
65758;BME280;52495;52.208;5.158;2022-08-16T05:53:14;100605.94;;;19.51;80.47
65758;BME280;52495;52.208;5.158;2022-08-16T05:55:57;100605.78;;;19.54;80.56
65758;BME280;52495;52.208;5.158;2022-08-16T05:58:24;100604.56;;;19.60;80.73
65758;BME280;52495;52.208;5.158;2022-08-16T06:00:51;100602.34;;;19.68;80.66
65758;BME280;52495;52.208;5.158;2022-08-16T06:03:18;100602.91;;;19.74;80.53
65758;BME280;52495;52.208;5.158;2022-08-16T06:05:56;100602.53;;;19.80;80.59
65758;BME280;52495;52.208;5.158;2022-08-16T06:08:23;100596.94;;;19.86;80.57
65758;BME280;52495;52.208;5.158;2022-08-16T06:10:51;100597.34;;;19.94;80.53
65758;BME280;52495;52.208;5.158;2022-08-16T06:13:19;100594.44;;;19.99;80.21
65758;BME280;52495;52.208;5.158;2022-08-16T06:15:46;100600.88;;;20.08;80.46
65758;BME280;52495;52.208;5.158;2022-08-16T06:18:16;100605.75;;;20.14;80.31
65758;BME280;52495;52.208;5.158;2022-08-16T06:20:43;100611.47;;;20.21;80.09
65758;BME280;52495;52.208;5.158;2022-08-16T06:23:16;100613.72;;;20.27;80.21
65758;BME280;52495;52.208;5.158;2022-08-16T06:26:07;100619.25;;;20.37;80.24
65758;BME280;52495;52.208;5.158;2022-08-16T06:28:40;100624.06;;;20.43;80.12
65758;BME280;52495;52.208;5.158;2022-08-16T06:31:13;100619.59;;;20.45;80.02
65758;BME280;52495;52.208;5.158;2022-08-16T06:33:44;100624.47;;;20.51;80.01
65758;BME280;52495;52.208;5.158;2022-08-16T06:36:14;100618.72;;;20.59;79.52
65758;BME280;52495;52.208;5.158;2022-08-16T06:38:52;100606.91;;;20.66;79.31
65758;BME280;52495;52.208;5.158;2022-08-16T06:41:24;100604.56;;;20.76;79.07
65758;BME280;52495;52.208;5.158;2022-08-16T06:43:51;100611.94;;;20.84;78.86
65758;BME280;52495;52.208;5.158;2022-08-16T06:46:24;100617.44;;;20.93;78.34
65758;BME280;52495;52.208;5.158;2022-08-16T06:48:51;100622.41;;;20.98;77.94
65758;BME280;52495;52.208;5.158;2022-08-16T06:51:18;100624.72;;;21.03;77.81
65758;BME280;52495;52.208;5.158;2022-08-16T06:53:45;100619.09;;;21.09;77.50
65758;BME280;52495;52.208;5.158;2022-08-16T06:56:14;100622.78;;;21.19;77.18
65758;BME280;52495;52.208;5.158;2022-08-16T06:58:52;100622.38;;;21.26;76.39
65758;BME280;52495;52.208;5.158;2022-08-16T07:01:23;100628.16;;;21.31;75.71
65758;BME280;52495;52.208;5.158;2022-08-16T07:03:51;100618.19;;;21.36;75.30
65758;BME280;52495;52.208;5.158;2022-08-16T07:06:18;100625.56;;;21.44;74.96
65758;BME280;52495;52.208;5.158;2022-08-16T07:08:47;100626.09;;;21.49;74.82
65758;BME280;52495;52.208;5.158;2022-08-16T07:11:16;100633.34;;;21.58;74.45
65758;BME280;52495;52.208;5.158;2022-08-16T07:13:45;100632.03;;;21.65;74.32
65758;BME280;52495;52.208;5.158;2022-08-16T07:16:13;100633.28;;;21.73;73.57
65758;BME280;52495;52.208;5.158;2022-08-16T07:18:42;100625.84;;;21.79;73.52
65758;BME280;52495;52.208;5.158;2022-08-16T07:21:09;100623.66;;;21.86;72.85
65758;BME280;52495;52.208;5.158;2022-08-16T07:23:37;100625.09;;;21.90;72.73
65758;BME280;52495;52.208;5.158;2022-08-16T07:26:08;100635.41;;;21.93;72.34
65758;BME280;52495;52.208;5.158;2022-08-16T07:28:37;100641.00;;;22.02;71.90
65758;BME280;52495;52.208;5.158;2022-08-16T07:31:04;100643.09;;;22.09;71.37
65758;BME280;52495;52.208;5.158;2022-08-16T07:33:35;100637.72;;;22.11;70.58
65758;BME280;52495;52.208;5.158;2022-08-16T07:36:07;100635.63;;;22.16;70.05
65758;BME280;52495;52.208;5.158;2022-08-16T07:38:39;100639.81;;;22.19;69.77
65758;BME280;52495;52.208;5.158;2022-08-16T07:41:06;100636.84;;;22.23;69.60
65758;BME280;52495;52.208;5.158;2022-08-16T07:43:33;100637.59;;;22.25;69.48
65758;BME280;52495;52.208;5.158;2022-08-16T07:46:04;100635.59;;;22.29;69.64
65758;BME280;52495;52.208;5.158;2022-08-16T07:48:37;100655.78;;;22.28;70.14
65758;BME280;52495;52.208;5.158;2022-08-16T07:51:05;100653.78;;;22.32;70.21
65758;BME280;52495;52.208;5.158;2022-08-16T07:53:33;100665.03;;;22.34;70.11
65758;BME280;52495;52.208;5.158;2022-08-16T07:56:01;100661.03;;;22.41;69.79
65758;BME280;52495;52.208;5.158;2022-08-16T07:58:33;100661.38;;;22.50;70.09
65758;BME280;52495;52.208;5.158;2022-08-16T08:01:03;100671.34;;;22.57;69.71
65758;BME280;52495;52.208;5.158;2022-08-16T08:03:32;100667.44;;;22.63;69.54
65758;BME280;52495;52.208;5.158;2022-08-16T08:06:00;100668.72;;;22.57;69.23
65758;BME280;52495;52.208;5.158;2022-08-16T08:08:27;100669.75;;;22.68;69.14
65758;BME280;52495;52.208;5.158;2022-08-16T08:10:55;100679.09;;;22.72;68.86
65758;BME280;52495;52.208;5.158;2022-08-16T08:13:22;100680.91;;;22.71;68.74
65758;BME280;52495;52.208;5.158;2022-08-16T08:15:48;100679.63;;;22.77;68.81
65758;BME280;52495;52.208;5.158;2022-08-16T08:18:17;100681.28;;;22.78;68.88
65758;BME280;52495;52.208;5.158;2022-08-16T08:20:45;100682.66;;;22.84;68.38
65758;BME280;52495;52.208;5.158;2022-08-16T08:23:14;100678.84;;;22.88;68.35
65758;BME280;52495;52.208;5.158;2022-08-16T08:25:44;100682.81;;;22.94;68.39
65758;BME280;52495;52.208;5.158;2022-08-16T08:28:11;100689.03;;;22.93;68.36
65758;BME280;52495;52.208;5.158;2022-08-16T08:30:40;100697.66;;;22.95;68.31
65758;BME280;52495;52.208;5.158;2022-08-16T08:33:07;100701.78;;;22.99;68.29
65758;BME280;52495;52.208;5.158;2022-08-16T08:35:40;100701.81;;;23.10;68.27
65758;BME280;52495;52.208;5.158;2022-08-16T08:38:10;100697.69;;;23.19;67.67
65758;BME280;52495;52.208;5.158;2022-08-16T08:40:42;100706.63;;;23.29;67.34
65758;BME280;52495;52.208;5.158;2022-08-16T08:43:12;100711.81;;;23.42;66.63
65758;BME280;52495;52.208;5.158;2022-08-16T08:45:44;100707.06;;;23.47;66.29
65758;BME280;52495;52.208;5.158;2022-08-16T08:48:11;100702.16;;;23.54;65.65
65758;BME280;52495;52.208;5.158;2022-08-16T08:50:38;100702.56;;;23.61;65.65
65758;BME280;52495;52.208;5.158;2022-08-16T08:53:06;100701.00;;;23.58;65.24
65758;BME280;52495;52.208;5.158;2022-08-16T08:55:36;100698.00;;;23.63;65.89
65758;BME280;52495;52.208;5.158;2022-08-16T08:58:03;100699.72;;;23.75;65.84
65758;BME280;52495;52.208;5.158;2022-08-16T09:00:53;100697.47;;;23.82;64.60
65758;BME280;52495;52.208;5.158;2022-08-16T09:03:20;100700.72;;;23.86;64.97
65758;BME280;52495;52.208;5.158;2022-08-16T09:05:48;100692.84;;;23.97;65.04
65758;BME280;52495;52.208;5.158;2022-08-16T09:08:16;100699.34;;;24.04;63.54
65758;BME280;52495;52.208;5.158;2022-08-16T09:10:55;100707.03;;;24.07;63.70
65758;BME280;52495;52.208;5.158;2022-08-16T09:13:22;100711.59;;;24.17;62.99
65758;BME280;52495;52.208;5.158;2022-08-16T09:15:50;100706.31;;;24.17;63.67
65758;BME280;52495;52.208;5.158;2022-08-16T09:18:18;100714.94;;;24.19;63.56
65758;BME280;52495;52.208;5.158;2022-08-16T09:20:47;100722.13;;;24.28;63.30
65758;BME280;52495;52.208;5.158;2022-08-16T09:23:14;100727.69;;;24.25;63.58
65758;BME280;52495;52.208;5.158;2022-08-16T09:25:42;100730.06;;;24.39;63.63
65758;BME280;52495;52.208;5.158;2022-08-16T09:28:14;100726.59;;;24.50;63.80
65758;BME280;52495;52.208;5.158;2022-08-16T09:30:46;100732.09;;;24.59;63.48
65758;BME280;52495;52.208;5.158;2022-08-16T09:33:14;100731.50;;;24.66;62.96
65758;BME280;52495;52.208;5.158;2022-08-16T09:35:43;100734.66;;;24.72;61.90
65758;BME280;52495;52.208;5.158;2022-08-16T09:38:11;100732.22;;;24.80;61.95
65758;BME280;52495;52.208;5.158;2022-08-16T09:40:38;100728.88;;;24.89;61.61
65758;BME280;52495;52.208;5.158;2022-08-16T09:43:05;100728.38;;;24.95;61.37
65758;BME280;52495;52.208;5.158;2022-08-16T09:45:34;100731.25;;;25.04;60.96
65758;BME280;52495;52.208;5.158;2022-08-16T09:48:04;100738.69;;;25.10;60.98
65758;BME280;52495;52.208;5.158;2022-08-16T09:50:31;100737.94;;;25.19;61.08
65758;BME280;52495;52.208;5.158;2022-08-16T09:53:00;100742.41;;;25.07;60.20
65758;BME280;52495;52.208;5.158;2022-08-16T09:55:27;100749.50;;;25.07;60.42
65758;BME280;52495;52.208;5.158;2022-08-16T09:57:54;100753.31;;;25.14;60.52
65758;BME280;52495;52.208;5.158;2022-08-16T10:00:21;100754.75;;;25.18;61.19
65758;BME280;52495;52.208;5.158;2022-08-16T10:02:52;100748.97;;;25.24;61.05
65758;BME280;52495;52.208;5.158;2022-08-16T10:05:19;100752.53;;;25.35;60.29
65758;BME280;52495;52.208;5.158;2022-08-16T10:07:46;100749.19;;;25.44;60.68
65758;BME280;52495;52.208;5.158;2022-08-16T10:10:17;100749.25;;;25.54;60.19
65758;BME280;52495;52.208;5.158;2022-08-16T10:12:44;100749.06;;;25.67;60.24
65758;BME280;52495;52.208;5.158;2022-08-16T10:15:28;100747.22;;;25.79;59.53
65758;BME280;52495;52.208;5.158;2022-08-16T10:17:57;100749.78;;;25.90;59.65
65758;BME280;52495;52.208;5.158;2022-08-16T10:20:25;100746.25;;;26.01;59.32
65758;BME280;52495;52.208;5.158;2022-08-16T10:22:52;100743.50;;;26.02;59.48
65758;BME280;52495;52.208;5.158;2022-08-16T10:25:19;100742.22;;;26.18;59.14
65758;BME280;52495;52.208;5.158;2022-08-16T10:27:46;100744.38;;;26.34;58.94
65758;BME280;52495;52.208;5.158;2022-08-16T10:30:15;100735.75;;;26.42;58.69
65758;BME280;52495;52.208;5.158;2022-08-16T10:32:42;100732.59;;;26.48;59.05
65758;BME280;52495;52.208;5.158;2022-08-16T10:35:10;100745.00;;;26.57;58.45
65758;BME280;52495;52.208;5.158;2022-08-16T10:37:37;100737.63;;;26.51;58.84
65758;BME280;52495;52.208;5.158;2022-08-16T10:40:06;100737.41;;;26.64;58.48
65758;BME280;52495;52.208;5.158;2022-08-16T10:42:33;100740.91;;;26.74;58.12
65758;BME280;52495;52.208;5.158;2022-08-16T10:45:00;100740.13;;;26.84;57.32
65758;BME280;52495;52.208;5.158;2022-08-16T10:47:28;100739.47;;;27.01;56.83
65758;BME280;52495;52.208;5.158;2022-08-16T10:49:54;100737.69;;;27.11;56.64
65758;BME280;52495;52.208;5.158;2022-08-16T10:52:25;100731.53;;;27.21;56.37
65758;BME280;52495;52.208;5.158;2022-08-16T10:54:52;100730.84;;;27.29;56.14
65758;BME280;52495;52.208;5.158;2022-08-16T10:57:18;100741.72;;;27.35;55.94
65758;BME280;52495;52.208;5.158;2022-08-16T10:59:45;100744.53;;;27.34;55.68
65758;BME280;52495;52.208;5.158;2022-08-16T11:02:12;100739.75;;;27.18;55.68
65758;BME280;52495;52.208;5.158;2022-08-16T11:04:39;100744.66;;;27.13;55.74
65758;BME280;52495;52.208;5.158;2022-08-16T11:07:05;100752.44;;;27.04;55.70
65758;BME280;52495;52.208;5.158;2022-08-16T11:09:37;100754.41;;;27.22;56.01
65758;BME280;52495;52.208;5.158;2022-08-16T11:12:04;100755.28;;;27.22;55.96
65758;BME280;52495;52.208;5.158;2022-08-16T11:14:32;100749.97;;;27.22;55.63
65758;BME280;52495;52.208;5.158;2022-08-16T11:17:00;100763.59;;;26.98;55.55
65758;BME280;52495;52.208;5.158;2022-08-16T11:19:28;100765.94;;;26.81;56.43
65758;BME280;52495;52.208;5.158;2022-08-16T11:21:56;100763.13;;;26.83;56.82
65758;BME280;52495;52.208;5.158;2022-08-16T11:24:23;100764.13;;;26.92;56.93
65758;BME280;52495;52.208;5.158;2022-08-16T11:26:51;100763.44;;;26.90;57.06
65758;BME280;52495;52.208;5.158;2022-08-16T11:29:18;100768.03;;;26.88;56.96
65758;BME280;52495;52.208;5.158;2022-08-16T11:31:45;100765.72;;;26.73;57.41
65758;BME280;52495;52.208;5.158;2022-08-16T11:34:14;100775.34;;;26.74;57.31
65758;BME280;52495;52.208;5.158;2022-08-16T11:36:40;100773.31;;;26.88;57.15
65758;BME280;52495;52.208;5.158;2022-08-16T11:39:09;100769.00;;;26.87;57.47
65758;BME280;52495;52.208;5.158;2022-08-16T11:41:35;100767.13;;;26.77;57.70
65758;BME280;52495;52.208;5.158;2022-08-16T11:44:04;100778.38;;;27.01;56.61
65758;BME280;52495;52.208;5.158;2022-08-16T11:46:32;100775.34;;;27.15;56.70
65758;BME280;52495;52.208;5.158;2022-08-16T11:48:59;100782.78;;;27.31;55.64
65758;BME280;52495;52.208;5.158;2022-08-16T11:51:26;100781.66;;;27.44;55.12
65758;BME280;52495;52.208;5.158;2022-08-16T11:53:53;100789.94;;;27.60;54.86
65758;BME280;52495;52.208;5.158;2022-08-16T11:56:20;100788.97;;;27.61;53.94
65758;BME280;52495;52.208;5.158;2022-08-16T11:58:47;100780.84;;;27.72;54.00
65758;BME280;52495;52.208;5.158;2022-08-16T12:01:15;100785.72;;;27.87;53.90
65758;BME280;52495;52.208;5.158;2022-08-16T12:03:42;100784.63;;;27.90;53.95
65758;BME280;52495;52.208;5.158;2022-08-16T12:06:12;100790.47;;;27.93;53.47
65758;BME280;52495;52.208;5.158;2022-08-16T12:08:40;100789.78;;;27.91;53.19
65758;BME280;52495;52.208;5.158;2022-08-16T12:11:08;100788.38;;;27.87;53.50
65758;BME280;52495;52.208;5.158;2022-08-16T12:13:35;100791.72;;;27.99;53.59
65758;BME280;52495;52.208;5.158;2022-08-16T12:16:02;100786.41;;;28.09;52.72
65758;BME280;52495;52.208;5.158;2022-08-16T12:18:32;100778.59;;;27.97;53.04
65758;BME280;52495;52.208;5.158;2022-08-16T12:20:59;100789.75;;;28.01;53.24
65758;BME280;52495;52.208;5.158;2022-08-16T12:23:26;100791.72;;;28.19;52.36
65758;BME280;52495;52.208;5.158;2022-08-16T12:25:52;100792.41;;;28.30;51.89
65758;BME280;52495;52.208;5.158;2022-08-16T12:28:20;100798.38;;;28.42;51.22
65758;BME280;52495;52.208;5.158;2022-08-16T12:30:46;100794.56;;;28.45;50.96
65758;BME280;52495;52.208;5.158;2022-08-16T12:33:15;100795.97;;;28.49;50.62
65758;BME280;52495;52.208;5.158;2022-08-16T12:35:46;100795.31;;;28.37;51.04
65758;BME280;52495;52.208;5.158;2022-08-16T12:38:13;100801.75;;;28.35;51.45
65758;BME280;52495;52.208;5.158;2022-08-16T12:40:45;100803.84;;;28.01;52.06
65758;BME280;52495;52.208;5.158;2022-08-16T12:43:14;100812.13;;;27.98;51.95
65758;BME280;52495;52.208;5.158;2022-08-16T12:45:43;100808.78;;;27.96;52.04
65758;BME280;52495;52.208;5.158;2022-08-16T12:48:12;100804.44;;;27.85;52.32
65758;BME280;52495;52.208;5.158;2022-08-16T12:50:55;100805.69;;;27.81;52.49
65758;BME280;52495;52.208;5.158;2022-08-16T12:53:22;100810.72;;;27.75;52.14
65758;BME280;52495;52.208;5.158;2022-08-16T12:55:49;100822.19;;;27.75;52.22
65758;BME280;52495;52.208;5.158;2022-08-16T12:58:17;100826.91;;;27.71;52.58
65758;BME280;52495;52.208;5.158;2022-08-16T13:00:45;100827.63;;;27.74;52.49